createdAt,value
2019-05-20T00:00:05.954Z,12.81
2019-05-20T00:01:05.879Z,12.77
2019-05-20T00:02:05.806Z,12.81
2019-05-20T00:03:05.726Z,12.81
2019-05-20T00:04:05.651Z,12.70
2019-05-20T00:05:05.576Z,12.74
2019-05-20T00:06:05.523Z,12.77
2019-05-20T00:07:05.422Z,12.78
2019-05-20T00:08:05.349Z,12.56
2019-05-20T00:09:05.272Z,12.56
2019-05-20T00:10:05.195Z,12.64
2019-05-20T00:11:05.119Z,12.52
2019-05-20T00:12:05.045Z,12.53
2019-05-20T00:13:04.970Z,12.48
2019-05-20T00:14:04.891Z,12.52
2019-05-20T00:15:04.814Z,12.52
2019-05-20T00:16:04.740Z,12.52
2019-05-20T00:17:04.677Z,12.52
2019-05-20T00:18:04.590Z,12.51
2019-05-20T00:19:04.509Z,12.46
2019-05-20T00:20:04.445Z,12.45
2019-05-20T00:21:04.357Z,12.30
2019-05-20T00:22:04.289Z,12.36
2019-05-20T00:23:04.207Z,12.37
2019-05-20T00:24:04.128Z,12.39
2019-05-20T00:25:04.055Z,12.36
2019-05-20T00:26:03.978Z,12.26
2019-05-20T00:27:03.899Z,12.26
2019-05-20T00:28:03.825Z,12.27
2019-05-20T00:29:03.749Z,12.21
2019-05-20T00:30:03.674Z,12.12
2019-05-20T00:31:03.594Z,12.12
2019-05-20T00:32:03.520Z,12.19
2019-05-20T00:33:03.443Z,12.15
2019-05-20T00:34:06.392Z,12.15
2019-05-20T00:35:03.289Z,12.13
2019-05-20T00:36:45.708Z,12.13
2019-05-20T00:37:45.624Z,12.09
2019-05-20T00:38:45.545Z,12.19
2019-05-20T00:39:45.468Z,12.12
2019-05-20T00:40:45.391Z,12.19
2019-05-20T00:41:45.314Z,12.15
2019-05-20T00:42:45.239Z,12.18
2019-05-20T00:43:45.161Z,12.15
2019-05-20T00:44:45.089Z,12.19
2019-05-20T00:45:45.011Z,12.13
2019-05-20T00:46:44.938Z,12.16
2019-05-20T00:47:44.856Z,12.05
2019-05-20T00:48:44.779Z,11.95
2019-05-20T00:49:44.703Z,11.95
2019-05-20T00:50:44.627Z,12.06
2019-05-20T00:51:44.550Z,11.95
2019-05-20T00:52:44.473Z,12.00
2019-05-20T00:53:44.398Z,11.87
2019-05-20T00:54:44.327Z,11.78
2019-05-20T00:55:44.244Z,11.79
2019-05-20T00:56:44.168Z,11.81
2019-05-20T00:57:44.093Z,11.79
2019-05-20T00:58:44.015Z,11.78
2019-05-20T00:59:43.936Z,11.93
2019-05-20T01:00:43.862Z,11.95
2019-05-20T01:01:43.783Z,11.86
2019-05-20T01:02:56.089Z,11.93
2019-05-20T01:03:43.630Z,11.76
2019-05-20T01:04:43.555Z,11.76
2019-05-20T01:05:43.479Z,11.76
2019-05-20T01:06:43.401Z,11.86
2019-05-20T01:07:43.326Z,11.72
2019-05-20T01:08:43.248Z,11.74
2019-05-20T01:09:43.176Z,11.75
2019-05-20T01:10:43.096Z,11.68
2019-05-20T01:11:43.017Z,11.74
2019-05-20T01:12:42.940Z,11.75
2019-05-20T01:13:42.863Z,11.76
2019-05-20T01:14:42.788Z,11.75
2019-05-20T01:15:42.711Z,11.75
2019-05-20T01:16:42.643Z,11.71
2019-05-20T01:17:42.557Z,11.71
2019-05-20T01:18:42.530Z,11.65
2019-05-20T01:19:42.404Z,11.59
2019-05-20T01:20:42.328Z,11.56
2019-05-20T01:21:42.250Z,11.60
2019-05-20T01:22:42.173Z,11.51
2019-05-20T01:23:42.097Z,11.60
2019-05-20T01:24:42.019Z,11.57
2019-05-20T01:25:41.944Z,11.51
2019-05-20T01:26:41.864Z,11.56
2019-05-20T01:27:41.785Z,11.54
2019-05-20T01:28:41.709Z,11.67
2019-05-20T01:29:41.631Z,11.71
2019-05-20T01:31:07.302Z,11.69
2019-05-20T01:31:41.473Z,11.57
2019-05-20T01:32:41.395Z,11.56
2019-05-20T01:33:41.317Z,11.54
2019-05-20T01:34:41.241Z,11.57
2019-05-20T01:35:41.167Z,11.60
2019-05-20T01:36:41.136Z,11.67
2019-05-20T01:37:41.009Z,11.64
2019-05-20T01:38:40.931Z,11.54
2019-05-20T01:39:40.854Z,11.57
2019-05-20T01:40:40.777Z,11.59
2019-05-20T01:41:40.700Z,11.59
2019-05-20T01:42:40.673Z,11.56
2019-05-20T01:43:40.549Z,11.54
2019-05-20T01:44:40.471Z,11.47
2019-05-20T01:45:40.392Z,11.54
2019-05-20T01:46:40.316Z,11.54
2019-05-20T01:47:40.239Z,11.56
2019-05-20T01:48:40.163Z,11.57
2019-05-20T01:49:40.288Z,11.53
2019-05-20T01:50:40.009Z,11.53
2019-05-20T01:51:39.932Z,11.46
2019-05-20T01:52:39.861Z,11.59
2019-05-20T01:53:39.779Z,11.56
2019-05-20T01:54:39.805Z,11.56
2019-05-20T01:55:39.625Z,11.56
2019-05-20T01:56:39.548Z,11.47
2019-05-20T01:57:39.473Z,11.46
2019-05-20T01:58:39.835Z,11.39
2019-05-20T01:59:39.321Z,11.36
2019-05-20T02:00:39.243Z,11.29
2019-05-20T02:01:39.177Z,11.43
2019-05-20T02:02:39.091Z,11.59
2019-05-20T02:03:39.015Z,11.54
2019-05-20T02:04:39.036Z,11.42
2019-05-20T02:05:38.866Z,11.39
2019-05-20T02:06:38.787Z,11.39
2019-05-20T02:07:38.738Z,11.50
2019-05-20T02:08:38.631Z,11.51
2019-05-20T02:09:38.555Z,11.57
2019-05-20T02:10:38.484Z,11.38
2019-05-20T02:11:38.400Z,11.35
2019-05-20T02:12:38.330Z,11.36
2019-05-20T02:13:38.249Z,11.36
2019-05-20T02:14:38.270Z,11.32
2019-05-20T02:15:38.094Z,11.32
2019-05-20T02:16:38.018Z,11.38
2019-05-20T02:17:37.942Z,11.36
2019-05-20T02:18:37.866Z,11.47
2019-05-20T02:19:37.792Z,11.35
2019-05-20T02:20:37.801Z,11.53
2019-05-20T02:21:37.636Z,11.51
2019-05-20T02:22:37.560Z,11.50
2019-05-20T02:23:37.483Z,11.46
2019-05-20T02:24:37.408Z,11.39
2019-05-20T02:25:37.334Z,11.39
2019-05-20T02:26:37.253Z,11.47
2019-05-20T02:27:37.175Z,11.43
2019-05-20T02:28:37.105Z,11.50
2019-05-20T02:29:37.023Z,11.47
2019-05-20T02:30:36.948Z,11.39
2019-05-20T02:31:36.869Z,11.43
2019-05-20T02:32:36.805Z,11.39
2019-05-20T02:33:50.675Z,11.47
2019-05-20T02:34:36.643Z,11.41
2019-05-20T02:35:36.566Z,11.50
2019-05-20T02:36:36.487Z,11.46
2019-05-20T02:37:36.415Z,11.46
2019-05-20T02:38:36.334Z,11.38
2019-05-20T02:39:36.265Z,11.51
2019-05-20T02:40:36.184Z,11.36
2019-05-20T02:41:36.109Z,11.41
2019-05-20T02:42:36.031Z,11.32
2019-05-20T02:43:35.952Z,11.41
2019-05-20T02:44:35.883Z,11.43
2019-05-20T02:45:35.799Z,11.57
2019-05-20T02:46:35.734Z,11.54
2019-05-20T02:47:35.643Z,11.50
2019-05-20T02:48:35.571Z,11.35
2019-05-20T02:49:35.489Z,11.32
2019-05-20T02:50:35.417Z,11.38
2019-05-20T02:51:35.335Z,11.31
2019-05-20T02:52:35.268Z,11.29
2019-05-20T02:53:35.182Z,11.29
2019-05-20T02:54:35.106Z,11.38
2019-05-20T02:55:35.126Z,11.38
2019-05-20T02:56:34.960Z,11.32
2019-05-20T02:57:34.873Z,11.35
2019-05-20T02:58:34.799Z,11.41
2019-05-20T02:59:34.720Z,11.38
2019-05-20T03:00:34.644Z,11.36
2019-05-20T03:01:34.571Z,11.32
2019-05-20T03:02:34.491Z,11.34
2019-05-20T03:03:34.412Z,11.34
2019-05-20T03:04:34.334Z,11.36
2019-05-20T03:05:34.259Z,11.29
2019-05-20T03:06:34.189Z,11.26
2019-05-20T03:07:34.106Z,11.31
2019-05-20T03:08:34.028Z,11.20
2019-05-20T03:09:33.968Z,11.21
2019-05-20T03:10:33.883Z,11.06
2019-05-20T03:11:33.811Z,11.08
2019-05-20T03:12:33.724Z,11.06
2019-05-20T03:13:33.645Z,11.17
2019-05-20T03:14:33.566Z,11.13
2019-05-20T03:15:33.491Z,11.16
2019-05-20T03:16:33.411Z,11.21
2019-05-20T03:17:33.336Z,11.17
2019-05-20T03:18:33.263Z,11.17
2019-05-20T03:19:33.180Z,11.20
2019-05-20T03:20:33.113Z,11.18
2019-05-20T03:21:33.029Z,11.14
2019-05-20T03:22:32.951Z,11.17
2019-05-20T03:23:32.873Z,11.28
2019-05-20T03:24:32.795Z,11.18
2019-05-20T03:25:32.719Z,11.21
2019-05-20T03:26:32.642Z,11.13
2019-05-20T03:27:32.566Z,11.23
2019-05-20T03:28:32.494Z,11.20
2019-05-20T03:29:32.417Z,11.14
2019-05-20T03:30:32.336Z,11.26
2019-05-20T03:31:32.312Z,11.24
2019-05-20T03:32:32.180Z,11.35
2019-05-20T03:33:32.112Z,11.35
2019-05-20T03:34:48.010Z,11.34
2019-05-20T03:35:32.006Z,11.26
2019-05-20T03:36:31.872Z,11.28
2019-05-20T03:37:31.898Z,11.21
2019-05-20T03:38:31.718Z,11.21
2019-05-20T03:39:31.642Z,11.35
2019-05-20T03:40:31.565Z,11.35
2019-05-20T03:41:31.496Z,11.41
2019-05-20T03:42:31.419Z,11.36
2019-05-20T03:43:31.335Z,11.38
2019-05-20T03:44:31.258Z,11.35
2019-05-20T03:45:31.201Z,11.35
2019-05-20T03:46:31.102Z,11.38
2019-05-20T03:47:31.036Z,11.35
2019-05-20T03:48:30.955Z,11.38
2019-05-20T03:49:30.875Z,11.38
2019-05-20T03:50:30.796Z,11.35
2019-05-20T03:51:30.726Z,11.38
2019-05-20T03:52:30.642Z,11.35
2019-05-20T03:53:30.563Z,11.36
2019-05-20T03:54:30.487Z,11.38
2019-05-20T03:55:30.439Z,11.34
2019-05-20T03:56:30.343Z,11.36
2019-05-20T03:57:30.257Z,11.41
2019-05-20T03:58:30.185Z,11.26
2019-05-20T03:59:30.103Z,11.23
2019-05-20T04:00:30.025Z,11.26
2019-05-20T04:01:29.954Z,11.23
2019-05-20T04:02:29.873Z,11.28
2019-05-20T04:03:29.805Z,11.29
2019-05-20T04:04:29.720Z,11.31
2019-05-20T04:05:29.642Z,11.29
2019-05-20T04:06:29.565Z,11.38
2019-05-20T04:07:29.495Z,11.36
2019-05-20T04:08:29.410Z,11.36
2019-05-20T04:09:29.340Z,11.41
2019-05-20T04:10:29.258Z,11.43
2019-05-20T04:11:29.182Z,11.51
2019-05-20T04:12:29.109Z,11.57
2019-05-20T04:13:29.028Z,11.51
2019-05-20T04:14:28.957Z,11.57
2019-05-20T04:15:28.875Z,11.56
2019-05-20T04:16:28.802Z,11.65
2019-05-20T04:17:28.721Z,11.67
2019-05-20T04:18:28.644Z,11.69
2019-05-20T04:19:28.575Z,11.60
2019-05-20T04:20:28.501Z,11.59
2019-05-20T04:21:28.414Z,11.59
2019-05-20T04:22:28.375Z,11.64
2019-05-20T04:23:28.268Z,11.69
2019-05-20T04:24:28.189Z,11.68
2019-05-20T04:25:28.108Z,11.72
2019-05-20T04:26:28.031Z,11.72
2019-05-20T04:27:27.954Z,11.76
2019-05-20T04:28:27.878Z,11.76
2019-05-20T04:29:27.803Z,11.83
2019-05-20T04:30:27.724Z,11.79
2019-05-20T04:31:27.650Z,11.86
2019-05-20T04:32:27.572Z,11.87
2019-05-20T04:33:27.497Z,11.84
2019-05-20T04:34:27.420Z,11.84
2019-05-20T04:35:27.342Z,11.93
2019-05-20T04:36:27.267Z,11.97
2019-05-20T04:37:27.191Z,12.03
2019-05-20T04:38:27.117Z,12.03
2019-05-20T04:39:27.040Z,12.15
2019-05-20T04:40:26.962Z,12.11
2019-05-20T04:41:26.884Z,12.23
2019-05-20T04:42:26.812Z,12.21
2019-05-20T04:43:26.731Z,12.24
2019-05-20T04:44:26.656Z,12.24
2019-05-20T04:45:26.580Z,12.28
2019-05-20T04:46:26.504Z,12.37
2019-05-20T04:47:26.428Z,12.36
2019-05-20T04:48:26.351Z,12.42
2019-05-20T04:49:26.276Z,12.46
2019-05-20T04:50:26.206Z,12.46
2019-05-20T04:51:26.130Z,12.55
2019-05-20T04:52:26.047Z,12.51
2019-05-20T04:53:25.986Z,12.64
2019-05-20T04:54:25.899Z,12.63
2019-05-20T04:55:25.832Z,12.60
2019-05-20T04:56:28.991Z,12.73
2019-05-20T04:57:25.672Z,12.71
2019-05-20T04:58:25.595Z,12.77
2019-05-20T04:59:25.522Z,12.78
2019-05-20T05:00:25.441Z,12.71
2019-05-20T05:01:25.366Z,12.78
2019-05-20T05:02:25.291Z,12.91
2019-05-20T05:03:25.214Z,12.79
2019-05-20T05:04:25.145Z,12.91
2019-05-20T05:05:37.253Z,12.94
2019-05-20T05:06:24.987Z,12.91
2019-05-20T05:07:24.910Z,13.00
2019-05-20T05:08:24.834Z,13.02
2019-05-20T05:09:24.760Z,13.02
2019-05-20T05:10:24.709Z,13.09
2019-05-20T05:11:24.658Z,12.97
2019-05-20T05:12:24.536Z,12.84
2019-05-20T05:13:24.462Z,12.79
2019-05-20T05:14:24.382Z,12.96
2019-05-20T05:15:24.307Z,12.89
2019-05-20T05:16:24.232Z,12.85
2019-05-20T05:17:24.158Z,12.78
2019-05-20T05:18:24.082Z,12.81
2019-05-20T05:19:24.008Z,12.91
2019-05-20T05:20:23.931Z,12.96
2019-05-20T05:21:23.856Z,12.92
2019-05-20T05:22:23.781Z,13.04
2019-05-20T05:23:23.706Z,13.02
2019-05-20T05:24:23.631Z,13.04
2019-05-20T05:25:23.559Z,13.09
2019-05-20T05:26:23.481Z,13.24
2019-05-20T05:27:23.405Z,13.27
2019-05-20T05:28:23.333Z,13.24
2019-05-20T05:29:23.256Z,13.36
2019-05-20T05:30:23.181Z,13.44
2019-05-20T05:31:23.104Z,13.47
2019-05-20T05:32:23.030Z,13.58
2019-05-20T05:33:22.956Z,13.61
2019-05-20T05:34:22.881Z,13.62
2019-05-20T05:35:22.861Z,13.65
2019-05-20T05:36:22.730Z,13.76
2019-05-20T05:37:22.656Z,13.89
2019-05-20T05:38:22.582Z,13.84
2019-05-20T05:39:22.504Z,13.95
2019-05-20T05:40:22.430Z,13.98
2019-05-20T05:41:22.378Z,14.07
2019-05-20T05:42:22.282Z,14.03
2019-05-20T05:43:22.212Z,14.09
2019-05-20T05:44:22.135Z,14.16
2019-05-20T05:45:22.061Z,14.20
2019-05-20T05:46:21.986Z,14.16
2019-05-20T05:47:21.912Z,14.29
2019-05-20T05:48:21.834Z,14.29
2019-05-20T05:49:21.762Z,14.29
2019-05-20T05:50:21.686Z,14.35
2019-05-20T05:51:21.611Z,14.39
2019-05-20T05:52:22.964Z,14.35
2019-05-20T05:53:21.462Z,14.44
2019-05-20T05:54:21.389Z,14.59
2019-05-20T05:55:21.315Z,14.60
2019-05-20T05:56:21.289Z,14.61
2019-05-20T05:57:21.167Z,14.72
2019-05-20T05:58:21.094Z,14.71
2019-05-20T05:59:21.023Z,14.83
2019-05-20T06:00:20.949Z,14.75
2019-05-20T06:01:20.873Z,14.79
2019-05-20T06:02:20.802Z,14.69
2019-05-20T06:03:20.750Z,14.85
2019-05-20T06:04:20.660Z,14.97
2019-05-20T06:05:20.586Z,15.06
2019-05-20T06:06:20.504Z,15.21
2019-05-20T06:07:20.430Z,15.23
2019-05-20T06:08:20.379Z,15.21
2019-05-20T06:09:20.284Z,15.20
2019-05-20T06:10:20.304Z,15.35
2019-05-20T06:11:20.140Z,15.21
2019-05-20T06:12:20.066Z,15.26
2019-05-20T06:13:19.989Z,15.26
2019-05-20T06:14:19.916Z,15.23
2019-05-20T06:15:19.845Z,15.39
2019-05-20T06:16:35.246Z,15.35
2019-05-20T06:17:19.701Z,15.41
2019-05-20T06:18:19.624Z,15.26
2019-05-20T06:19:19.549Z,15.35
2019-05-20T06:20:19.475Z,15.46
2019-05-20T06:21:19.403Z,15.31
2019-05-20T06:22:19.346Z,15.31
2019-05-20T06:23:20.471Z,15.13
2019-05-20T06:24:19.184Z,15.16
2019-05-20T06:25:19.111Z,15.10
2019-05-20T06:26:19.037Z,15.15
2019-05-20T06:27:18.964Z,15.12
2019-05-20T06:28:18.891Z,15.15
2019-05-20T06:29:18.821Z,15.09
2019-05-20T06:30:18.743Z,15.16
2019-05-20T06:31:18.669Z,15.12
2019-05-20T06:32:18.598Z,15.18
2019-05-20T06:33:18.529Z,15.21
2019-05-20T06:34:18.456Z,15.38
2019-05-20T06:35:18.375Z,15.39
2019-05-20T06:36:26.430Z,15.35
2019-05-20T06:37:18.232Z,15.33
2019-05-20T06:38:18.157Z,15.39
2019-05-20T06:39:18.083Z,15.45
2019-05-20T06:40:18.008Z,15.51
2019-05-20T06:41:17.944Z,15.43
2019-05-20T06:42:17.898Z,15.51
2019-05-20T06:43:17.795Z,15.46
2019-05-20T06:44:17.716Z,15.66
2019-05-20T06:45:17.643Z,15.73
2019-05-20T06:46:17.570Z,15.70
2019-05-20T06:47:17.495Z,15.81
2019-05-20T06:48:17.422Z,15.92
2019-05-20T06:49:17.350Z,15.81
2019-05-20T06:50:17.279Z,15.86
2019-05-20T06:51:17.201Z,15.73
2019-05-20T06:52:17.129Z,15.71
2019-05-20T06:53:17.055Z,15.67
2019-05-20T06:54:16.991Z,15.68
2019-05-20T06:55:16.911Z,15.68
2019-05-20T06:56:16.847Z,15.70
2019-05-20T06:57:16.764Z,15.85
2019-05-20T06:58:16.691Z,15.68
2019-05-20T06:59:16.618Z,15.68
2019-05-20T07:00:16.542Z,15.70
2019-05-20T07:01:16.570Z,15.68
2019-05-20T07:02:16.398Z,15.63
2019-05-20T07:03:16.321Z,15.70
2019-05-20T07:04:16.253Z,15.71
2019-05-20T07:05:16.177Z,15.67
2019-05-20T07:06:16.103Z,15.70
2019-05-20T07:07:21.048Z,15.71
2019-05-20T07:09:15.892Z,15.81
2019-05-20T07:11:15.834Z,15.68
2019-05-20T07:12:15.659Z,15.73
2019-05-20T07:13:16.363Z,15.81
2019-05-20T07:14:15.512Z,15.76
2019-05-20T07:15:15.447Z,15.68
2019-05-20T07:16:15.394Z,15.75
2019-05-20T07:17:15.291Z,15.71
2019-05-20T07:18:15.226Z,15.71
2019-05-20T07:19:15.143Z,15.81
2019-05-20T07:20:15.068Z,15.78
2019-05-20T07:21:14.995Z,15.70
2019-05-20T07:22:14.922Z,15.79
2019-05-20T07:23:14.854Z,15.71
2019-05-20T07:24:14.794Z,15.68
2019-05-20T07:25:14.708Z,15.73
2019-05-20T07:26:14.628Z,15.73
2019-05-20T07:27:14.553Z,15.70
2019-05-20T07:28:14.480Z,15.67
2019-05-20T07:29:14.415Z,15.81
2019-05-20T07:30:15.593Z,15.79
2019-05-20T07:31:14.259Z,15.89
2019-05-20T07:32:14.185Z,15.86
2019-05-20T07:33:14.111Z,15.81
2019-05-20T07:34:14.038Z,15.94
2019-05-20T07:35:28.761Z,15.91
2019-05-20T07:36:13.889Z,15.88
2019-05-20T07:37:13.816Z,15.96
2019-05-20T07:38:13.742Z,16.00
2019-05-20T07:39:13.668Z,15.97
2019-05-20T07:40:13.608Z,16.04
2019-05-20T07:41:13.533Z,16.00
2019-05-20T07:42:13.449Z,16.07
2019-05-20T07:43:13.374Z,16.23
2019-05-20T07:44:13.302Z,16.29
2019-05-20T07:45:13.228Z,16.25
2019-05-20T07:46:13.154Z,16.30
2019-05-20T07:47:13.093Z,16.29
2019-05-20T07:48:13.011Z,16.44
2019-05-20T07:49:12.938Z,16.56
2019-05-20T07:50:12.862Z,16.56
2019-05-20T07:51:12.792Z,16.45
2019-05-20T07:52:12.787Z,16.52
2019-05-20T07:53:12.642Z,16.41
2019-05-20T07:54:12.649Z,16.50
2019-05-20T07:55:12.497Z,16.38
2019-05-20T07:56:12.477Z,16.44
2019-05-20T07:57:12.351Z,16.48
2019-05-20T07:58:12.280Z,16.48
2019-05-20T07:59:12.206Z,16.47
2019-05-20T08:00:12.139Z,16.48
2019-05-20T08:01:12.058Z,16.47
2019-05-20T08:02:12.009Z,16.44
2019-05-20T08:03:11.913Z,16.42
2019-05-20T08:04:11.840Z,16.42
2019-05-20T08:05:11.772Z,16.45
2019-05-20T08:06:11.739Z,16.35
2019-05-20T08:07:26.586Z,16.34
2019-05-20T08:08:11.540Z,16.33
2019-05-20T08:09:11.468Z,16.41
2019-05-20T08:10:11.393Z,16.55
2019-05-20T08:11:11.317Z,16.41
2019-05-20T08:12:11.241Z,16.40
2019-05-20T08:13:11.169Z,16.42
2019-05-20T08:14:11.094Z,16.42
2019-05-20T08:15:11.018Z,16.50
2019-05-20T08:16:10.944Z,16.59
2019-05-20T08:17:10.875Z,16.60
2019-05-20T08:18:10.796Z,16.59
2019-05-20T08:19:10.720Z,16.62
2019-05-20T08:20:10.646Z,16.66
2019-05-20T08:21:10.572Z,16.75
2019-05-20T08:22:10.499Z,16.75
2019-05-20T08:23:10.422Z,16.85
2019-05-20T08:24:10.348Z,16.89
2019-05-20T08:25:10.274Z,16.92
2019-05-20T08:26:10.199Z,16.98
2019-05-20T08:27:10.127Z,16.84
2019-05-20T08:28:10.049Z,16.77
2019-05-20T08:29:09.976Z,16.88
2019-05-20T08:30:13.363Z,16.90
2019-05-20T08:31:09.836Z,16.89
2019-05-20T08:32:09.755Z,16.89
2019-05-20T08:33:09.678Z,16.89
2019-05-20T08:34:09.604Z,16.92
2019-05-20T08:35:09.552Z,16.96
2019-05-20T08:36:09.456Z,16.93
2019-05-20T08:37:09.727Z,17.17
2019-05-20T08:38:09.336Z,17.07
2019-05-20T08:39:09.435Z,17.10
2019-05-20T08:40:09.157Z,17.13
2019-05-20T08:41:09.083Z,17.17
2019-05-20T08:42:09.014Z,17.23
2019-05-20T08:43:08.934Z,17.29
2019-05-20T08:44:08.866Z,17.18
2019-05-20T08:45:08.786Z,17.07
2019-05-20T08:46:08.721Z,17.17
2019-05-20T08:47:08.638Z,17.26
2019-05-20T08:48:08.565Z,17.39
2019-05-20T08:49:11.081Z,17.53
2019-05-20T08:50:14.376Z,17.54
2019-05-20T08:51:08.340Z,17.46
2019-05-20T08:52:08.293Z,17.54
2019-05-20T08:53:08.194Z,17.30
2019-05-20T08:54:08.120Z,17.23
2019-05-20T08:55:08.045Z,17.26
2019-05-20T08:56:07.975Z,17.17
2019-05-20T08:57:07.925Z,17.28
2019-05-20T08:58:07.870Z,17.32
2019-05-20T08:59:07.819Z,17.38
2019-05-20T09:00:07.679Z,17.50
2019-05-20T09:01:08.633Z,17.74
2019-05-20T09:02:07.528Z,17.81
2019-05-20T09:03:07.456Z,17.92
2019-05-20T09:04:07.381Z,17.95
2019-05-20T09:05:07.306Z,18.03
2019-05-20T09:06:07.244Z,18.07
2019-05-20T09:07:07.163Z,17.98
2019-05-20T09:08:07.088Z,17.79
2019-05-20T09:09:07.013Z,17.84
2019-05-20T09:10:06.941Z,17.98
2019-05-20T09:11:06.865Z,17.96
2019-05-20T09:12:06.792Z,18.02
2019-05-20T09:13:06.718Z,17.92
2019-05-20T09:14:06.646Z,17.88
2019-05-20T09:15:06.569Z,17.92
2019-05-20T09:16:06.496Z,17.94
2019-05-20T09:17:06.429Z,17.98
2019-05-20T09:18:06.355Z,17.96
2019-05-20T09:19:06.343Z,18.06
2019-05-20T09:20:06.212Z,18.10
2019-05-20T09:21:06.130Z,18.04
2019-05-20T09:22:06.057Z,18.09
2019-05-20T09:23:05.983Z,18.06
2019-05-20T09:24:05.920Z,18.09
2019-05-20T09:25:05.854Z,18.13
2019-05-20T09:26:05.763Z,18.06
2019-05-20T09:27:05.689Z,18.11
2019-05-20T09:28:05.618Z,18.21
2019-05-20T09:29:05.548Z,18.04
2019-05-20T09:30:05.471Z,18.04
2019-05-20T09:31:05.406Z,17.98
2019-05-20T09:32:05.335Z,18.03
2019-05-20T09:33:05.253Z,18.00
2019-05-20T09:34:05.179Z,18.11
2019-05-20T09:35:05.109Z,18.07
2019-05-20T09:36:05.031Z,18.19
2019-05-20T09:37:04.958Z,18.22
2019-05-20T09:38:17.766Z,18.39
2019-05-20T09:39:04.812Z,18.43
2019-05-20T09:40:04.739Z,18.52
2019-05-20T09:41:04.665Z,18.53
2019-05-20T09:42:04.612Z,18.39
2019-05-20T09:44:04.444Z,18.35
2019-05-20T09:45:04.398Z,18.39
2019-05-20T09:46:08.042Z,18.24
2019-05-20T09:47:04.228Z,18.18
2019-05-20T09:48:04.154Z,18.07
2019-05-20T09:49:04.086Z,18.16
2019-05-20T09:50:04.016Z,18.10
2019-05-20T09:51:03.937Z,18.10
2019-05-20T09:52:03.966Z,18.18
2019-05-20T09:53:06.799Z,18.11
2019-05-20T09:54:03.724Z,18.24
2019-05-20T09:55:03.648Z,18.29
2019-05-20T09:57:06.076Z,18.14
2019-05-20T09:58:06.014Z,18.16
2019-05-20T09:59:05.932Z,18.10
2019-05-20T10:00:05.859Z,18.14
2019-05-20T10:01:05.787Z,18.19
2019-05-20T10:02:05.714Z,18.43
2019-05-20T10:03:06.454Z,18.42
2019-05-20T10:04:05.572Z,18.55
2019-05-20T10:05:05.501Z,18.61
2019-05-20T10:06:05.429Z,18.58
2019-05-20T10:07:05.362Z,18.59
2019-05-20T10:08:05.287Z,18.68
2019-05-20T10:09:05.224Z,18.82
2019-05-20T10:10:05.141Z,18.89
2019-05-20T10:11:05.076Z,19.02
2019-05-20T10:12:05.001Z,19.08
2019-05-20T10:13:05.081Z,19.24
2019-05-20T10:14:04.859Z,19.20
2019-05-20T10:15:04.788Z,19.28
2019-05-20T10:16:04.717Z,19.35
2019-05-20T10:17:04.646Z,19.28
2019-05-20T10:18:07.201Z,19.11
2019-05-20T10:19:04.503Z,18.95
2019-05-20T10:20:04.431Z,19.01
2019-05-20T10:21:04.564Z,19.14
2019-05-20T10:22:04.291Z,19.09
2019-05-20T10:23:04.219Z,19.09
2019-05-20T10:24:04.153Z,18.98
2019-05-20T10:25:04.078Z,19.11
2019-05-20T10:26:04.014Z,19.08
2019-05-20T10:27:03.941Z,19.33
2019-05-20T10:28:03.868Z,19.53
2019-05-20T10:29:03.800Z,19.55
2019-05-20T10:30:03.729Z,19.64
2019-05-20T10:31:03.655Z,19.69
2019-05-20T10:32:03.584Z,19.65
2019-05-20T10:33:03.515Z,19.42
2019-05-20T10:34:03.444Z,19.45
2019-05-20T10:35:03.378Z,19.57
2019-05-20T10:36:03.309Z,19.61
2019-05-20T10:37:03.232Z,19.64
2019-05-20T10:38:03.173Z,19.69
2019-05-20T10:39:07.389Z,19.51
2019-05-20T10:40:03.022Z,19.46
2019-05-20T10:41:02.960Z,19.46
2019-05-20T10:42:02.880Z,19.46
2019-05-20T10:43:02.810Z,19.33
2019-05-20T10:44:02.740Z,19.43
2019-05-20T10:45:03.041Z,19.36
2019-05-20T10:46:02.601Z,19.39
2019-05-20T10:47:02.545Z,19.38
2019-05-20T10:48:02.466Z,19.24
2019-05-20T10:49:02.439Z,19.36
2019-05-20T10:50:03.532Z,19.25
2019-05-20T10:51:02.248Z,19.21
2019-05-20T10:52:02.178Z,19.24
2019-05-20T10:53:02.115Z,19.14
2019-05-20T10:54:04.720Z,18.99
2019-05-20T10:55:01.975Z,18.98
2019-05-20T10:56:02.456Z,19.08
2019-05-20T10:57:01.825Z,18.95
2019-05-20T10:58:01.755Z,18.94
2019-05-20T10:59:01.686Z,18.92
2019-05-20T11:00:01.678Z,19.11
2019-05-20T11:01:03.471Z,19.01
2019-05-20T11:02:01.472Z,18.95
2019-05-20T11:03:01.402Z,19.05
2019-05-20T11:04:01.332Z,18.90
2019-05-20T11:05:01.259Z,18.90
2019-05-20T11:06:01.188Z,18.95
2019-05-20T11:07:01.117Z,18.94
2019-05-20T11:08:01.049Z,18.82
2019-05-20T11:09:13.110Z,18.74
2019-05-20T11:10:00.904Z,18.87
2019-05-20T11:11:00.855Z,18.92
2019-05-20T11:12:00.763Z,18.90
2019-05-20T11:13:00.692Z,18.89
2019-05-20T11:14:00.624Z,18.74
2019-05-20T11:15:00.551Z,18.65
2019-05-20T11:16:00.479Z,18.68
2019-05-20T11:17:00.412Z,18.65
2019-05-20T11:18:00.338Z,18.53
2019-05-20T11:19:00.286Z,18.57
2019-05-20T11:20:00.207Z,18.59
2019-05-20T11:21:00.126Z,18.59
2019-05-20T11:22:00.053Z,18.47
2019-05-20T11:23:01.166Z,18.50
2019-05-20T11:23:59.909Z,18.43
2019-05-20T11:24:59.845Z,18.37
2019-05-20T11:25:59.766Z,18.28
2019-05-20T11:26:59.696Z,18.32
2019-05-20T11:27:59.623Z,18.37
2019-05-20T11:28:59.552Z,18.31
2019-05-20T11:29:59.489Z,18.31
2019-05-20T11:30:59.408Z,18.24
2019-05-20T11:31:59.356Z,18.25
2019-05-20T11:32:59.268Z,18.19
2019-05-20T11:33:59.192Z,18.14
2019-05-20T11:34:59.120Z,18.22
2019-05-20T11:35:59.050Z,18.16
2019-05-20T11:36:58.981Z,18.18
2019-05-20T11:37:58.904Z,18.18
2019-05-20T11:38:58.842Z,18.24
2019-05-20T11:39:58.764Z,18.28
2019-05-20T11:40:58.691Z,18.18
2019-05-20T11:41:58.635Z,18.25
2019-05-20T11:42:58.548Z,18.32
2019-05-20T11:43:58.476Z,18.31
2019-05-20T11:44:58.404Z,18.34
2019-05-20T11:45:58.334Z,18.35
2019-05-20T11:46:58.263Z,18.44
2019-05-20T11:47:58.192Z,18.39
2019-05-20T11:48:58.120Z,18.53
2019-05-20T11:49:58.046Z,18.53
2019-05-20T11:50:57.975Z,18.59
2019-05-20T11:51:57.901Z,18.61
2019-05-20T11:52:57.833Z,18.67
2019-05-20T11:53:57.757Z,18.69
2019-05-20T11:54:57.785Z,18.69
2019-05-20T11:55:57.615Z,18.82
2019-05-20T11:56:57.547Z,18.74
2019-05-20T11:58:14.045Z,18.94
2019-05-20T11:58:57.399Z,18.95
2019-05-20T11:59:57.340Z,19.01
2019-05-20T12:00:57.273Z,19.01
2019-05-20T12:01:57.184Z,18.97
2019-05-20T12:02:57.114Z,18.98
2019-05-20T12:03:57.042Z,18.92
2019-05-20T12:04:56.971Z,18.97
2019-05-20T12:05:56.912Z,18.87
2019-05-20T12:06:56.827Z,18.89
2019-05-20T12:07:56.756Z,18.94
2019-05-20T12:08:56.684Z,18.92
2019-05-20T12:09:56.611Z,18.92
2019-05-20T12:10:56.540Z,18.82
2019-05-20T12:11:56.496Z,18.87
2019-05-20T12:12:56.400Z,18.97
2019-05-20T12:13:56.326Z,18.97
2019-05-20T12:14:56.253Z,19.01
2019-05-20T12:15:56.182Z,18.95
2019-05-20T12:16:56.111Z,18.92
2019-05-20T12:17:56.040Z,18.94
2019-05-20T12:18:55.975Z,18.95
2019-05-20T12:19:55.897Z,18.94
2019-05-20T12:20:55.825Z,18.90
2019-05-20T12:21:55.753Z,18.74
2019-05-20T12:22:55.681Z,18.68
2019-05-20T12:23:55.611Z,18.57
2019-05-20T12:24:55.544Z,18.65
2019-05-20T12:25:55.466Z,18.71
2019-05-20T12:26:55.395Z,18.68
2019-05-20T12:27:55.327Z,18.71
2019-05-20T12:28:55.253Z,18.74
2019-05-20T12:29:55.179Z,18.73
2019-05-20T12:30:55.110Z,18.65
2019-05-20T12:31:55.039Z,18.62
2019-05-20T12:33:17.173Z,18.55
2019-05-20T12:33:54.893Z,18.55
2019-05-20T12:34:54.821Z,18.42
2019-05-20T12:35:54.753Z,18.40
2019-05-20T12:36:54.681Z,18.27
2019-05-20T12:37:54.609Z,18.11
2019-05-20T12:38:54.534Z,17.95
2019-05-20T12:40:06.302Z,17.94
2019-05-20T12:40:54.392Z,17.94
2019-05-20T12:41:54.333Z,17.92
2019-05-20T12:42:54.246Z,17.81
2019-05-20T12:44:10.945Z,17.84
2019-05-20T12:44:54.106Z,17.84
2019-05-20T12:45:54.030Z,17.96
2019-05-20T12:46:53.958Z,17.94
2019-05-20T12:47:53.887Z,18.02
2019-05-20T12:48:53.839Z,17.85
2019-05-20T12:49:53.742Z,17.89
2019-05-20T12:50:53.674Z,17.92
2019-05-20T12:51:53.619Z,17.94
2019-05-20T12:52:53.526Z,17.98
2019-05-20T12:53:53.454Z,18.02
2019-05-20T12:55:06.795Z,17.98
2019-05-20T12:55:53.309Z,17.98